sensor_id;sensor_type;location;lat;lon;timestamp;temperature;humidity
262;DHT22;114;48.260;10.988;2024-02-26T00:01:51;3.00;1.00
262;DHT22;114;48.260;10.988;2024-02-26T00:04:16;3.10;1.00
262;DHT22;114;48.260;10.988;2024-02-26T00:06:43;3.00;1.00
262;DHT22;114;48.260;10.988;2024-02-26T00:09:09;3.00;1.00
262;DHT22;114;48.260;10.988;2024-02-26T00:11:38;3.10;1.00
262;DHT22;114;48.260;10.988;2024-02-26T00:14:04;3.00;1.00
262;DHT22;114;48.260;10.988;2024-02-26T00:16:30;3.00;1.00
262;DHT22;114;48.260;10.988;2024-02-26T00:18:56;2.90;1.00
262;DHT22;114;48.260;10.988;2024-02-26T00:21:21;2.90;1.00
262;DHT22;114;48.260;10.988;2024-02-26T00:23:48;2.90;1.00
262;DHT22;114;48.260;10.988;2024-02-26T00:26:14;2.80;1.00
262;DHT22;114;48.260;10.988;2024-02-26T00:28:40;2.70;1.00
262;DHT22;114;48.260;10.988;2024-02-26T00:31:06;2.70;1.00
262;DHT22;114;48.260;10.988;2024-02-26T00:33:32;2.60;1.00
262;DHT22;114;48.260;10.988;2024-02-26T00:35:57;2.50;1.00
262;DHT22;114;48.260;10.988;2024-02-26T00:38:23;2.40;1.00
262;DHT22;114;48.260;10.988;2024-02-26T00:40:48;2.40;1.00
262;DHT22;114;48.260;10.988;2024-02-26T00:43:14;2.30;1.00
262;DHT22;114;48.260;10.988;2024-02-26T00:45:41;2.20;1.00
262;DHT22;114;48.260;10.988;2024-02-26T00:48:07;2.20;1.00
262;DHT22;114;48.260;10.988;2024-02-26T00:50:33;2.20;1.00
262;DHT22;114;48.260;10.988;2024-02-26T00:53:00;2.10;1.00
262;DHT22;114;48.260;10.988;2024-02-26T00:55:25;2.00;1.00
262;DHT22;114;48.260;10.988;2024-02-26T00:57:51;1.90;1.00
262;DHT22;114;48.260;10.988;2024-02-26T01:00:17;1.90;1.00
262;DHT22;114;48.260;10.988;2024-02-26T01:02:43;1.80;1.00
262;DHT22;114;48.260;10.988;2024-02-26T01:05:12;1.80;1.00
262;DHT22;114;48.260;10.988;2024-02-26T01:07:38;1.80;1.00
262;DHT22;114;48.260;10.988;2024-02-26T01:10:08;1.80;1.00
262;DHT22;114;48.260;10.988;2024-02-26T01:12:34;1.80;1.00
262;DHT22;114;48.260;10.988;2024-02-26T01:15:03;1.70;1.00
262;DHT22;114;48.260;10.988;2024-02-26T01:17:30;1.60;1.00
262;DHT22;114;48.260;10.988;2024-02-26T01:19:56;1.60;1.00
262;DHT22;114;48.260;10.988;2024-02-26T01:22:23;1.60;1.00
262;DHT22;114;48.260;10.988;2024-02-26T01:24:48;1.50;1.00
262;DHT22;114;48.260;10.988;2024-02-26T01:27:14;1.50;1.00
262;DHT22;114;48.260;10.988;2024-02-26T01:29:42;1.50;1.00
262;DHT22;114;48.260;10.988;2024-02-26T01:32:08;1.50;1.00
262;DHT22;114;48.260;10.988;2024-02-26T01:34:33;1.50;1.00
262;DHT22;114;48.260;10.988;2024-02-26T01:37:00;1.50;1.00
262;DHT22;114;48.260;10.988;2024-02-26T01:39:27;1.50;1.00
262;DHT22;114;48.260;10.988;2024-02-26T01:41:54;1.50;1.00
262;DHT22;114;48.260;10.988;2024-02-26T01:44:21;1.40;1.00
262;DHT22;114;48.260;10.988;2024-02-26T01:46:48;1.40;1.00
262;DHT22;114;48.260;10.988;2024-02-26T01:49:14;1.30;1.00
262;DHT22;114;48.260;10.988;2024-02-26T01:51:42;1.30;1.00
262;DHT22;114;48.260;10.988;2024-02-26T01:54:12;1.20;1.00
262;DHT22;114;48.260;10.988;2024-02-26T01:56:39;1.20;1.00
262;DHT22;114;48.260;10.988;2024-02-26T01:59:07;1.10;1.00
262;DHT22;114;48.260;10.988;2024-02-26T02:01:38;1.10;1.00
262;DHT22;114;48.260;10.988;2024-02-26T02:04:05;1.10;1.00
262;DHT22;114;48.260;10.988;2024-02-26T02:06:30;1.20;1.00
262;DHT22;114;48.260;10.988;2024-02-26T02:08:56;1.20;1.00
262;DHT22;114;48.260;10.988;2024-02-26T02:11:22;1.30;1.00
262;DHT22;114;48.260;10.988;2024-02-26T02:13:49;1.50;1.00
262;DHT22;114;48.260;10.988;2024-02-26T02:16:14;1.50;1.00
262;DHT22;114;48.260;10.988;2024-02-26T02:18:40;1.50;1.00
262;DHT22;114;48.260;10.988;2024-02-26T02:21:06;1.60;1.00
262;DHT22;114;48.260;10.988;2024-02-26T02:23:31;1.60;1.00
262;DHT22;114;48.260;10.988;2024-02-26T02:25:57;1.60;1.00
262;DHT22;114;48.260;10.988;2024-02-26T02:28:26;1.60;1.00
262;DHT22;114;48.260;10.988;2024-02-26T02:30:52;1.70;1.00
262;DHT22;114;48.260;10.988;2024-02-26T02:33:19;1.60;1.00
262;DHT22;114;48.260;10.988;2024-02-26T02:35:45;1.60;1.00
262;DHT22;114;48.260;10.988;2024-02-26T02:38:12;1.80;1.00
262;DHT22;114;48.260;10.988;2024-02-26T02:40:38;1.50;1.00
262;DHT22;114;48.260;10.988;2024-02-26T02:43:03;1.50;1.00
262;DHT22;114;48.260;10.988;2024-02-26T02:45:30;1.40;1.00
262;DHT22;114;48.260;10.988;2024-02-26T02:47:55;1.40;1.00
262;DHT22;114;48.260;10.988;2024-02-26T02:50:21;1.60;1.00
262;DHT22;114;48.260;10.988;2024-02-26T02:52:47;1.50;1.00
262;DHT22;114;48.260;10.988;2024-02-26T02:55:13;1.50;1.00
262;DHT22;114;48.260;10.988;2024-02-26T02:57:39;1.60;1.00
262;DHT22;114;48.260;10.988;2024-02-26T03:00:10;1.60;1.00
262;DHT22;114;48.260;10.988;2024-02-26T03:02:36;1.60;1.00
262;DHT22;114;48.260;10.988;2024-02-26T03:05:04;1.60;1.00
262;DHT22;114;48.260;10.988;2024-02-26T03:07:32;1.70;1.00
262;DHT22;114;48.260;10.988;2024-02-26T03:09:58;1.70;1.00
262;DHT22;114;48.260;10.988;2024-02-26T03:12:25;1.70;1.00
262;DHT22;114;48.260;10.988;2024-02-26T03:14:50;1.70;1.00
262;DHT22;114;48.260;10.988;2024-02-26T03:17:16;1.80;1.00
262;DHT22;114;48.260;10.988;2024-02-26T03:19:46;1.70;1.00
262;DHT22;114;48.260;10.988;2024-02-26T03:22:19;1.70;1.00
262;DHT22;114;48.260;10.988;2024-02-26T03:24:45;1.60;1.00
262;DHT22;114;48.260;10.988;2024-02-26T03:27:11;1.60;1.00
262;DHT22;114;48.260;10.988;2024-02-26T03:29:38;1.70;1.00
262;DHT22;114;48.260;10.988;2024-02-26T03:32:04;1.90;1.00
262;DHT22;114;48.260;10.988;2024-02-26T03:34:30;1.80;1.00
262;DHT22;114;48.260;10.988;2024-02-26T03:36:56;1.80;1.00
262;DHT22;114;48.260;10.988;2024-02-26T03:39:22;1.90;1.00
262;DHT22;114;48.260;10.988;2024-02-26T03:41:48;1.80;1.00
262;DHT22;114;48.260;10.988;2024-02-26T03:44:14;1.70;1.00
262;DHT22;114;48.260;10.988;2024-02-26T03:46:40;1.90;1.00
262;DHT22;114;48.260;10.988;2024-02-26T03:49:08;1.90;1.00
262;DHT22;114;48.260;10.988;2024-02-26T03:51:34;1.80;1.00
262;DHT22;114;48.260;10.988;2024-02-26T03:54:01;1.80;1.00
262;DHT22;114;48.260;10.988;2024-02-26T03:56:27;1.80;1.00
262;DHT22;114;48.260;10.988;2024-02-26T03:58:53;1.80;1.00
262;DHT22;114;48.260;10.988;2024-02-26T04:01:20;2.00;1.00
262;DHT22;114;48.260;10.988;2024-02-26T04:03:45;1.80;1.00
262;DHT22;114;48.260;10.988;2024-02-26T04:06:11;1.80;1.00
262;DHT22;114;48.260;10.988;2024-02-26T04:08:40;1.80;1.00
262;DHT22;114;48.260;10.988;2024-02-26T04:11:06;1.90;1.00
262;DHT22;114;48.260;10.988;2024-02-26T04:13:33;1.90;1.00
262;DHT22;114;48.260;10.988;2024-02-26T04:15:59;1.80;1.00
262;DHT22;114;48.260;10.988;2024-02-26T04:18:27;1.80;1.00
262;DHT22;114;48.260;10.988;2024-02-26T04:20:53;1.90;1.00
262;DHT22;114;48.260;10.988;2024-02-26T04:23:19;1.80;1.00
262;DHT22;114;48.260;10.988;2024-02-26T04:25:46;1.80;1.00
262;DHT22;114;48.260;10.988;2024-02-26T04:28:12;1.80;1.00
262;DHT22;114;48.260;10.988;2024-02-26T04:30:38;1.80;1.00
262;DHT22;114;48.260;10.988;2024-02-26T04:33:04;1.80;1.00
262;DHT22;114;48.260;10.988;2024-02-26T04:35:29;1.80;1.00
262;DHT22;114;48.260;10.988;2024-02-26T04:37:55;1.80;1.00
262;DHT22;114;48.260;10.988;2024-02-26T04:40:21;1.80;1.00
262;DHT22;114;48.260;10.988;2024-02-26T04:42:46;1.80;1.00
262;DHT22;114;48.260;10.988;2024-02-26T04:45:12;1.70;1.00
262;DHT22;114;48.260;10.988;2024-02-26T04:47:38;1.70;1.00
262;DHT22;114;48.260;10.988;2024-02-26T04:50:04;1.70;1.00
262;DHT22;114;48.260;10.988;2024-02-26T04:52:29;1.80;1.00
262;DHT22;114;48.260;10.988;2024-02-26T04:54:55;2.10;1.00
262;DHT22;114;48.260;10.988;2024-02-26T04:57:21;2.10;1.00
262;DHT22;114;48.260;10.988;2024-02-26T04:59:49;2.10;1.00
262;DHT22;114;48.260;10.988;2024-02-26T05:02:15;2.00;1.00
262;DHT22;114;48.260;10.988;2024-02-26T05:04:41;2.10;1.00
262;DHT22;114;48.260;10.988;2024-02-26T05:07:06;2.20;1.00
262;DHT22;114;48.260;10.988;2024-02-26T05:09:32;2.30;1.00
262;DHT22;114;48.260;10.988;2024-02-26T05:11:58;2.20;1.00
262;DHT22;114;48.260;10.988;2024-02-26T05:14:23;2.20;1.00
262;DHT22;114;48.260;10.988;2024-02-26T05:16:49;2.20;1.00
262;DHT22;114;48.260;10.988;2024-02-26T05:19:16;2.20;1.00
262;DHT22;114;48.260;10.988;2024-02-26T05:21:41;2.40;1.00
262;DHT22;114;48.260;10.988;2024-02-26T05:24:09;2.20;1.00
262;DHT22;114;48.260;10.988;2024-02-26T05:26:35;2.20;1.00
262;DHT22;114;48.260;10.988;2024-02-26T05:29:01;2.10;1.00
262;DHT22;114;48.260;10.988;2024-02-26T05:31:28;2.10;1.00
262;DHT22;114;48.260;10.988;2024-02-26T05:33:55;2.10;1.00
262;DHT22;114;48.260;10.988;2024-02-26T05:36:21;2.20;1.00
262;DHT22;114;48.260;10.988;2024-02-26T05:38:48;2.20;1.00
262;DHT22;114;48.260;10.988;2024-02-26T05:41:15;2.20;1.00
262;DHT22;114;48.260;10.988;2024-02-26T05:43:42;2.10;1.00
262;DHT22;114;48.260;10.988;2024-02-26T05:46:07;2.10;1.00
262;DHT22;114;48.260;10.988;2024-02-26T05:48:34;2.10;1.00
262;DHT22;114;48.260;10.988;2024-02-26T05:50:59;2.30;1.00
262;DHT22;114;48.260;10.988;2024-02-26T05:53:25;2.20;1.00
262;DHT22;114;48.260;10.988;2024-02-26T05:55:51;2.40;1.00
262;DHT22;114;48.260;10.988;2024-02-26T05:58:16;2.60;1.00
262;DHT22;114;48.260;10.988;2024-02-26T06:00:42;2.60;1.00
262;DHT22;114;48.260;10.988;2024-02-26T06:03:07;2.60;1.00
262;DHT22;114;48.260;10.988;2024-02-26T06:05:34;2.50;1.00
262;DHT22;114;48.260;10.988;2024-02-26T06:08:01;2.40;1.00
262;DHT22;114;48.260;10.988;2024-02-26T06:10:29;2.30;1.00
262;DHT22;114;48.260;10.988;2024-02-26T06:12:54;2.20;1.00
262;DHT22;114;48.260;10.988;2024-02-26T06:15:20;2.20;1.00
262;DHT22;114;48.260;10.988;2024-02-26T06:17:46;2.30;1.00
262;DHT22;114;48.260;10.988;2024-02-26T06:20:13;2.30;1.00
262;DHT22;114;48.260;10.988;2024-02-26T06:22:40;2.30;1.00
262;DHT22;114;48.260;10.988;2024-02-26T06:25:06;2.40;1.00
262;DHT22;114;48.260;10.988;2024-02-26T06:27:32;2.30;1.00
262;DHT22;114;48.260;10.988;2024-02-26T06:29:58;2.50;1.00
262;DHT22;114;48.260;10.988;2024-02-26T06:32:26;2.60;1.00
262;DHT22;114;48.260;10.988;2024-02-26T06:34:53;2.60;1.00
262;DHT22;114;48.260;10.988;2024-02-26T06:37:19;2.60;1.00
262;DHT22;114;48.260;10.988;2024-02-26T06:39:45;2.60;1.00
262;DHT22;114;48.260;10.988;2024-02-26T06:42:11;2.70;1.00
262;DHT22;114;48.260;10.988;2024-02-26T06:44:37;2.70;1.00
262;DHT22;114;48.260;10.988;2024-02-26T06:47:04;2.80;1.00
262;DHT22;114;48.260;10.988;2024-02-26T06:49:30;2.80;1.00
262;DHT22;114;48.260;10.988;2024-02-26T06:51:55;2.80;1.00
262;DHT22;114;48.260;10.988;2024-02-26T06:54:24;2.80;1.00
262;DHT22;114;48.260;10.988;2024-02-26T06:56:49;2.80;1.00
262;DHT22;114;48.260;10.988;2024-02-26T06:59:19;2.80;1.00
262;DHT22;114;48.260;10.988;2024-02-26T07:01:45;2.90;1.00
262;DHT22;114;48.260;10.988;2024-02-26T07:04:11;2.90;1.00
262;DHT22;114;48.260;10.988;2024-02-26T07:06:37;2.80;1.00
262;DHT22;114;48.260;10.988;2024-02-26T07:09:03;3.10;1.00
262;DHT22;114;48.260;10.988;2024-02-26T07:11:29;2.90;1.00
262;DHT22;114;48.260;10.988;2024-02-26T07:13:54;3.00;1.00
262;DHT22;114;48.260;10.988;2024-02-26T07:16:20;3.00;1.00
262;DHT22;114;48.260;10.988;2024-02-26T07:18:59;3.20;1.00
262;DHT22;114;48.260;10.988;2024-02-26T07:21:35;3.40;1.00
262;DHT22;114;48.260;10.988;2024-02-26T07:24:12;3.50;1.00
262;DHT22;114;48.260;10.988;2024-02-26T07:26:50;3.50;1.00
262;DHT22;114;48.260;10.988;2024-02-26T07:29:41;3.50;1.00
262;DHT22;114;48.260;10.988;2024-02-26T07:32:08;3.40;1.00
262;DHT22;114;48.260;10.988;2024-02-26T07:34:34;3.50;1.00
262;DHT22;114;48.260;10.988;2024-02-26T07:37:13;3.50;1.00
262;DHT22;114;48.260;10.988;2024-02-26T07:39:38;3.60;1.00
262;DHT22;114;48.260;10.988;2024-02-26T07:42:04;3.60;1.00
262;DHT22;114;48.260;10.988;2024-02-26T07:44:30;3.70;1.00
262;DHT22;114;48.260;10.988;2024-02-26T07:46:58;3.70;1.00
262;DHT22;114;48.260;10.988;2024-02-26T07:49:25;3.70;1.00
262;DHT22;114;48.260;10.988;2024-02-26T07:52:01;4.00;1.00
262;DHT22;114;48.260;10.988;2024-02-26T07:54:33;4.10;1.00
262;DHT22;114;48.260;10.988;2024-02-26T07:56:58;4.20;1.00
262;DHT22;114;48.260;10.988;2024-02-26T07:59:25;4.30;1.00
262;DHT22;114;48.260;10.988;2024-02-26T08:01:51;4.60;1.00
262;DHT22;114;48.260;10.988;2024-02-26T08:04:17;4.90;1.00
262;DHT22;114;48.260;10.988;2024-02-26T08:06:43;5.10;1.00
262;DHT22;114;48.260;10.988;2024-02-26T08:09:08;5.10;1.00
262;DHT22;114;48.260;10.988;2024-02-26T08:11:35;5.20;1.00
262;DHT22;114;48.260;10.988;2024-02-26T08:14:03;5.40;1.00
262;DHT22;114;48.260;10.988;2024-02-26T08:16:28;5.40;1.00
262;DHT22;114;48.260;10.988;2024-02-26T08:18:55;5.50;1.00
262;DHT22;114;48.260;10.988;2024-02-26T08:21:27;5.60;1.00
262;DHT22;114;48.260;10.988;2024-02-26T08:24:01;5.50;1.00
262;DHT22;114;48.260;10.988;2024-02-26T08:26:37;5.70;1.00
262;DHT22;114;48.260;10.988;2024-02-26T08:29:14;5.70;1.00
262;DHT22;114;48.260;10.988;2024-02-26T08:31:48;5.80;1.00
262;DHT22;114;48.260;10.988;2024-02-26T08:34:16;5.70;1.00
262;DHT22;114;48.260;10.988;2024-02-26T08:36:45;5.80;1.00
262;DHT22;114;48.260;10.988;2024-02-26T08:39:10;5.80;1.00
262;DHT22;114;48.260;10.988;2024-02-26T08:41:38;5.90;1.00
262;DHT22;114;48.260;10.988;2024-02-26T08:44:04;5.80;1.00
262;DHT22;114;48.260;10.988;2024-02-26T08:46:30;5.80;1.00
262;DHT22;114;48.260;10.988;2024-02-26T08:48:56;5.70;1.00
262;DHT22;114;48.260;10.988;2024-02-26T08:51:22;5.80;1.00
262;DHT22;114;48.260;10.988;2024-02-26T08:53:50;5.90;1.00
262;DHT22;114;48.260;10.988;2024-02-26T08:56:16;5.70;1.00
262;DHT22;114;48.260;10.988;2024-02-26T08:58:43;5.70;1.00
262;DHT22;114;48.260;10.988;2024-02-26T09:01:09;5.70;1.00
262;DHT22;114;48.260;10.988;2024-02-26T09:03:35;5.80;1.00
262;DHT22;114;48.260;10.988;2024-02-26T09:06:01;5.90;1.00
262;DHT22;114;48.260;10.988;2024-02-26T09:08:29;6.10;1.00
262;DHT22;114;48.260;10.988;2024-02-26T09:10:55;6.30;1.00
262;DHT22;114;48.260;10.988;2024-02-26T09:13:29;6.60;1.00
262;DHT22;114;48.260;10.988;2024-02-26T09:16:07;6.60;1.00
262;DHT22;114;48.260;10.988;2024-02-26T09:18:46;6.70;1.00
262;DHT22;114;48.260;10.988;2024-02-26T09:21:19;6.80;1.00
262;DHT22;114;48.260;10.988;2024-02-26T09:23:56;6.90;1.00
262;DHT22;114;48.260;10.988;2024-02-26T09:26:23;7.10;1.00
262;DHT22;114;48.260;10.988;2024-02-26T09:28:49;7.20;1.00
262;DHT22;114;48.260;10.988;2024-02-26T09:31:17;7.30;1.00
262;DHT22;114;48.260;10.988;2024-02-26T09:33:43;7.60;1.00
262;DHT22;114;48.260;10.988;2024-02-26T09:36:09;7.70;1.00
262;DHT22;114;48.260;10.988;2024-02-26T09:38:36;7.60;1.00
262;DHT22;114;48.260;10.988;2024-02-26T09:41:04;7.70;1.00
262;DHT22;114;48.260;10.988;2024-02-26T09:43:34;7.80;1.00
262;DHT22;114;48.260;10.988;2024-02-26T09:46:01;7.80;1.00
262;DHT22;114;48.260;10.988;2024-02-26T09:48:28;7.80;1.00
262;DHT22;114;48.260;10.988;2024-02-26T09:50:54;7.80;1.00
262;DHT22;114;48.260;10.988;2024-02-26T09:53:22;7.80;1.00
262;DHT22;114;48.260;10.988;2024-02-26T09:55:50;8.20;1.00
262;DHT22;114;48.260;10.988;2024-02-26T09:58:16;8.00;1.00
262;DHT22;114;48.260;10.988;2024-02-26T10:00:49;8.10;1.00
262;DHT22;114;48.260;10.988;2024-02-26T10:03:42;8.10;1.00
262;DHT22;114;48.260;10.988;2024-02-26T10:06:11;8.10;1.00
262;DHT22;114;48.260;10.988;2024-02-26T10:08:40;8.30;1.00
262;DHT22;114;48.260;10.988;2024-02-26T10:11:07;8.60;1.00
262;DHT22;114;48.260;10.988;2024-02-26T10:13:37;8.70;1.00
262;DHT22;114;48.260;10.988;2024-02-26T10:16:03;8.70;1.00
262;DHT22;114;48.260;10.988;2024-02-26T10:18:52;8.90;1.00
262;DHT22;114;48.260;10.988;2024-02-26T10:21:20;8.90;1.00
262;DHT22;114;48.260;10.988;2024-02-26T10:23:47;9.10;1.00
262;DHT22;114;48.260;10.988;2024-02-26T10:26:21;9.10;1.00
262;DHT22;114;48.260;10.988;2024-02-26T10:28:48;9.10;1.00
262;DHT22;114;48.260;10.988;2024-02-26T10:31:15;9.00;1.00
262;DHT22;114;48.260;10.988;2024-02-26T10:33:42;8.90;1.00
262;DHT22;114;48.260;10.988;2024-02-26T10:36:09;9.10;1.00
262;DHT22;114;48.260;10.988;2024-02-26T10:38:35;9.10;1.00
262;DHT22;114;48.260;10.988;2024-02-26T10:41:03;9.20;1.00
262;DHT22;114;48.260;10.988;2024-02-26T10:43:28;9.50;1.00
262;DHT22;114;48.260;10.988;2024-02-26T10:45:59;9.50;1.00
262;DHT22;114;48.260;10.988;2024-02-26T10:48:25;9.30;1.00
262;DHT22;114;48.260;10.988;2024-02-26T10:50:50;9.20;1.00
262;DHT22;114;48.260;10.988;2024-02-26T10:53:24;9.40;1.00
262;DHT22;114;48.260;10.988;2024-02-26T10:56:00;9.70;1.00
262;DHT22;114;48.260;10.988;2024-02-26T10:58:28;9.50;1.00
262;DHT22;114;48.260;10.988;2024-02-26T11:00:57;9.60;1.00
262;DHT22;114;48.260;10.988;2024-02-26T11:03:24;9.80;1.00
262;DHT22;114;48.260;10.988;2024-02-26T11:05:50;10.30;1.00
262;DHT22;114;48.260;10.988;2024-02-26T11:08:20;10.80;1.00
262;DHT22;114;48.260;10.988;2024-02-26T11:10:53;10.80;1.00
262;DHT22;114;48.260;10.988;2024-02-26T11:13:19;10.50;1.00
262;DHT22;114;48.260;10.988;2024-02-26T11:15:47;10.90;1.00
262;DHT22;114;48.260;10.988;2024-02-26T11:18:15;10.90;1.00
262;DHT22;114;48.260;10.988;2024-02-26T11:20:46;11.20;1.00
262;DHT22;114;48.260;10.988;2024-02-26T11:23:14;11.50;1.00
262;DHT22;114;48.260;10.988;2024-02-26T11:25:46;11.20;1.00
262;DHT22;114;48.260;10.988;2024-02-26T11:28:16;10.80;1.00
262;DHT22;114;48.260;10.988;2024-02-26T11:30:46;10.70;1.00
262;DHT22;114;48.260;10.988;2024-02-26T11:33:13;10.60;1.00
262;DHT22;114;48.260;10.988;2024-02-26T11:35:41;10.90;1.00
262;DHT22;114;48.260;10.988;2024-02-26T11:38:07;12.10;1.00
262;DHT22;114;48.260;10.988;2024-02-26T11:40:40;13.00;1.00
262;DHT22;114;48.260;10.988;2024-02-26T11:43:07;13.90;1.00
262;DHT22;114;48.260;10.988;2024-02-26T11:48:26;13.70;1.00
262;DHT22;114;48.260;10.988;2024-02-26T11:50:57;14.40;1.00
262;DHT22;114;48.260;10.988;2024-02-26T11:53:28;14.60;1.00
262;DHT22;114;48.260;10.988;2024-02-26T11:58:41;14.60;1.00
262;DHT22;114;48.260;10.988;2024-02-26T12:01:44;15.20;1.00
262;DHT22;114;48.260;10.988;2024-02-26T12:04:21;15.40;1.00
262;DHT22;114;48.260;10.988;2024-02-26T12:06:52;14.60;1.00
262;DHT22;114;48.260;10.988;2024-02-26T12:09:42;14.60;1.00
262;DHT22;114;48.260;10.988;2024-02-26T12:12:18;14.50;1.00
262;DHT22;114;48.260;10.988;2024-02-26T12:14:55;15.70;1.00
262;DHT22;114;48.260;10.988;2024-02-26T12:17:29;16.00;1.00
262;DHT22;114;48.260;10.988;2024-02-26T12:20:08;15.70;1.00
262;DHT22;114;48.260;10.988;2024-02-26T12:22:37;15.80;1.00
262;DHT22;114;48.260;10.988;2024-02-26T12:25:05;16.50;1.00
262;DHT22;114;48.260;10.988;2024-02-26T12:27:31;17.40;1.00
262;DHT22;114;48.260;10.988;2024-02-26T12:29:59;17.80;1.00
262;DHT22;114;48.260;10.988;2024-02-26T12:32:25;17.20;1.00
262;DHT22;114;48.260;10.988;2024-02-26T12:34:52;16.90;1.00
262;DHT22;114;48.260;10.988;2024-02-26T12:37:18;15.90;1.00
262;DHT22;114;48.260;10.988;2024-02-26T12:39:44;15.20;1.00
262;DHT22;114;48.260;10.988;2024-02-26T12:42:11;14.70;1.00
262;DHT22;114;48.260;10.988;2024-02-26T12:44:37;14.40;1.00
262;DHT22;114;48.260;10.988;2024-02-26T12:47:04;14.10;1.00
262;DHT22;114;48.260;10.988;2024-02-26T12:49:31;14.00;1.00
262;DHT22;114;48.260;10.988;2024-02-26T12:51:58;14.10;1.00
262;DHT22;114;48.260;10.988;2024-02-26T12:54:33;14.00;1.00
262;DHT22;114;48.260;10.988;2024-02-26T12:57:08;14.00;1.00
262;DHT22;114;48.260;10.988;2024-02-26T12:59:37;14.20;1.00
262;DHT22;114;48.260;10.988;2024-02-26T13:02:03;14.50;1.00
262;DHT22;114;48.260;10.988;2024-02-26T13:04:31;14.50;1.00
262;DHT22;114;48.260;10.988;2024-02-26T13:06:58;14.50;1.00
262;DHT22;114;48.260;10.988;2024-02-26T13:09:32;14.70;1.00
262;DHT22;114;48.260;10.988;2024-02-26T13:12:04;14.70;1.00
262;DHT22;114;48.260;10.988;2024-02-26T13:14:30;14.40;1.00
262;DHT22;114;48.260;10.988;2024-02-26T13:17:01;14.10;1.00
262;DHT22;114;48.260;10.988;2024-02-26T13:19:27;14.00;1.00
262;DHT22;114;48.260;10.988;2024-02-26T13:21:55;13.80;1.00
262;DHT22;114;48.260;10.988;2024-02-26T13:24:22;13.70;1.00
262;DHT22;114;48.260;10.988;2024-02-26T13:26:54;13.60;1.00
262;DHT22;114;48.260;10.988;2024-02-26T13:29:20;13.40;1.00
262;DHT22;114;48.260;10.988;2024-02-26T13:31:48;13.30;1.00
262;DHT22;114;48.260;10.988;2024-02-26T13:34:30;13.00;1.00
262;DHT22;114;48.260;10.988;2024-02-26T13:36:57;12.80;1.00
262;DHT22;114;48.260;10.988;2024-02-26T13:39:24;12.60;1.00
262;DHT22;114;48.260;10.988;2024-02-26T13:41:52;12.40;1.00
262;DHT22;114;48.260;10.988;2024-02-26T13:44:26;12.40;1.00
262;DHT22;114;48.260;10.988;2024-02-26T13:46:53;12.30;1.00
262;DHT22;114;48.260;10.988;2024-02-26T13:49:19;12.20;1.00
262;DHT22;114;48.260;10.988;2024-02-26T13:51:45;12.10;1.00
262;DHT22;114;48.260;10.988;2024-02-26T13:54:10;12.10;1.00
262;DHT22;114;48.260;10.988;2024-02-26T13:56:36;12.10;1.00
262;DHT22;114;48.260;10.988;2024-02-26T13:59:03;12.10;1.00
262;DHT22;114;48.260;10.988;2024-02-26T14:01:30;12.10;1.00
262;DHT22;114;48.260;10.988;2024-02-26T14:04:01;12.00;1.00
262;DHT22;114;48.260;10.988;2024-02-26T14:06:28;12.10;1.00
262;DHT22;114;48.260;10.988;2024-02-26T14:08:58;12.10;1.00
262;DHT22;114;48.260;10.988;2024-02-26T14:11:26;12.10;1.00
262;DHT22;114;48.260;10.988;2024-02-26T14:13:54;12.10;1.00
262;DHT22;114;48.260;10.988;2024-02-26T14:16:24;12.00;1.00
262;DHT22;114;48.260;10.988;2024-02-26T14:18:49;11.90;1.00
262;DHT22;114;48.260;10.988;2024-02-26T14:21:18;11.80;1.00
262;DHT22;114;48.260;10.988;2024-02-26T14:23:50;11.70;1.00
262;DHT22;114;48.260;10.988;2024-02-26T14:26:28;11.60;1.00
262;DHT22;114;48.260;10.988;2024-02-26T14:29:03;11.60;1.00
262;DHT22;114;48.260;10.988;2024-02-26T14:31:29;11.50;1.00
262;DHT22;114;48.260;10.988;2024-02-26T14:34:07;11.40;1.00
262;DHT22;114;48.260;10.988;2024-02-26T14:36:41;11.40;1.00
262;DHT22;114;48.260;10.988;2024-02-26T14:39:06;11.30;1.00
262;DHT22;114;48.260;10.988;2024-02-26T14:41:33;11.20;1.00
262;DHT22;114;48.260;10.988;2024-02-26T14:44:04;11.10;1.00
262;DHT22;114;48.260;10.988;2024-02-26T14:46:37;11.00;1.00
262;DHT22;114;48.260;10.988;2024-02-26T14:49:05;11.00;1.00
262;DHT22;114;48.260;10.988;2024-02-26T14:51:32;11.00;1.00
262;DHT22;114;48.260;10.988;2024-02-26T14:53:58;11.00;1.00
262;DHT22;114;48.260;10.988;2024-02-26T14:56:38;10.90;1.00
262;DHT22;114;48.260;10.988;2024-02-26T14:59:07;11.00;1.00
262;DHT22;114;48.260;10.988;2024-02-26T15:01:35;10.90;1.00
262;DHT22;114;48.260;10.988;2024-02-26T15:04:02;10.80;1.00
262;DHT22;114;48.260;10.988;2024-02-26T15:06:29;10.80;1.00
262;DHT22;114;48.260;10.988;2024-02-26T15:08:56;10.90;1.00
262;DHT22;114;48.260;10.988;2024-02-26T15:11:25;10.80;1.00
262;DHT22;114;48.260;10.988;2024-02-26T15:13:52;10.80;1.00
262;DHT22;114;48.260;10.988;2024-02-26T15:16:23;10.90;1.00
262;DHT22;114;48.260;10.988;2024-02-26T15:18:49;10.90;1.00
262;DHT22;114;48.260;10.988;2024-02-26T15:21:14;10.90;1.00
262;DHT22;114;48.260;10.988;2024-02-26T15:23:51;10.90;1.00
262;DHT22;114;48.260;10.988;2024-02-26T15:26:19;10.80;1.00
262;DHT22;114;48.260;10.988;2024-02-26T15:28:46;10.90;1.00
262;DHT22;114;48.260;10.988;2024-02-26T15:31:12;10.90;1.00
262;DHT22;114;48.260;10.988;2024-02-26T15:33:38;10.80;1.00
262;DHT22;114;48.260;10.988;2024-02-26T15:36:04;10.80;1.00
262;DHT22;114;48.260;10.988;2024-02-26T15:38:34;10.70;1.00
262;DHT22;114;48.260;10.988;2024-02-26T15:41:01;10.70;1.00
262;DHT22;114;48.260;10.988;2024-02-26T15:43:30;10.70;1.00
262;DHT22;114;48.260;10.988;2024-02-26T15:46:05;10.70;1.00
262;DHT22;114;48.260;10.988;2024-02-26T15:48:32;10.60;1.00
262;DHT22;114;48.260;10.988;2024-02-26T15:50:58;10.60;1.00
262;DHT22;114;48.260;10.988;2024-02-26T15:53:24;10.50;1.00
262;DHT22;114;48.260;10.988;2024-02-26T15:55:51;10.60;1.00
262;DHT22;114;48.260;10.988;2024-02-26T15:58:25;10.60;1.00
262;DHT22;114;48.260;10.988;2024-02-26T16:01:03;10.50;1.00
262;DHT22;114;48.260;10.988;2024-02-26T16:03:30;10.50;1.00
262;DHT22;114;48.260;10.988;2024-02-26T16:05:56;10.30;1.00
262;DHT22;114;48.260;10.988;2024-02-26T16:08:22;10.30;1.00
262;DHT22;114;48.260;10.988;2024-02-26T16:10:49;10.20;1.00
262;DHT22;114;48.260;10.988;2024-02-26T16:13:15;10.30;1.00
262;DHT22;114;48.260;10.988;2024-02-26T16:15:43;10.20;1.00
262;DHT22;114;48.260;10.988;2024-02-26T16:18:11;10.20;1.00
262;DHT22;114;48.260;10.988;2024-02-26T16:20:37;10.10;1.00
262;DHT22;114;48.260;10.988;2024-02-26T16:23:04;10.00;1.00
262;DHT22;114;48.260;10.988;2024-02-26T16:25:32;9.90;1.00
262;DHT22;114;48.260;10.988;2024-02-26T16:27:57;9.90;1.00
262;DHT22;114;48.260;10.988;2024-02-26T16:30:24;9.80;1.00
262;DHT22;114;48.260;10.988;2024-02-26T16:32:51;9.80;1.00
262;DHT22;114;48.260;10.988;2024-02-26T16:35:16;9.80;1.00
262;DHT22;114;48.260;10.988;2024-02-26T16:37:49;9.70;1.00
262;DHT22;114;48.260;10.988;2024-02-26T16:40:15;9.80;1.00
262;DHT22;114;48.260;10.988;2024-02-26T16:42:41;9.70;1.00
262;DHT22;114;48.260;10.988;2024-02-26T16:45:07;9.90;1.00
262;DHT22;114;48.260;10.988;2024-02-26T16:47:33;9.70;1.00
262;DHT22;114;48.260;10.988;2024-02-26T16:50:00;9.60;1.00
262;DHT22;114;48.260;10.988;2024-02-26T16:52:28;9.60;1.00
262;DHT22;114;48.260;10.988;2024-02-26T16:54:55;9.60;1.00
262;DHT22;114;48.260;10.988;2024-02-26T16:57:21;9.50;1.00